Weather at Wittman Regional Airport

Public forecast

Using degrees Fahrenheit for public forecast. Weather courtesy of forecast.io.

Current aviation weather report (METAR) for Wittman Regional Airport

2024/05/25 10:53 (retrieved 12 minutes ago)

KOSH 251053Z 29007KT 10SM CLR 09/06 A2979 RMK AO2 SLP085 T00940056

Closest aviation forecast (TAF) to Wittman Regional Airport

Closest forecast is Appleton International Airport, 16.5 nm (30.6 km) N.

2024/05/25 06:22 (retrieved 5 hours ago)

TAF KATW 250520Z 2506/2606 24008KT P6SM VCSH SCT015 BKN025 TEMPO 2506/2507 BKN012 FM250700 27011G18KT P6SM SCT040 FM252100 22009KT P6SM BKN250 FM260000 18006KT P6SM BKN150